createdAt,value
2019-04-23T00:02:26.544Z,14.40
2019-04-23T00:04:55.552Z,14.40
2019-04-23T00:07:40.077Z,14.40
2019-04-23T00:09:56.877Z,14.40
2019-04-23T00:12:40.496Z,14.40
2019-04-23T00:15:04.851Z,14.40
2019-04-23T00:17:37.363Z,14.40
2019-04-23T00:20:06.461Z,14.40
2019-04-23T00:22:36.983Z,14.30
2019-04-23T00:25:47.092Z,14.30
2019-04-23T00:27:59.441Z,14.20
2019-04-23T00:30:36.264Z,14.30
2019-04-23T00:33:01.607Z,14.20
2019-04-23T00:35:25.518Z,14.20
2019-04-23T00:38:05.538Z,14.20
2019-04-23T00:40:37.518Z,14.10
2019-04-23T00:43:01.954Z,14.10
2019-04-23T00:48:09.264Z,14.10
2019-04-23T00:50:38.544Z,14.10
2019-04-23T00:53:04.576Z,13.90
2019-04-23T00:55:35.706Z,13.80
2019-04-23T00:58:06.579Z,13.80
2019-04-23T01:00:42.431Z,13.80
2019-04-23T01:05:35.311Z,13.70
2019-04-23T01:08:13.011Z,13.70
2019-04-23T01:13:39.361Z,13.70
2019-04-23T01:16:08.518Z,13.60
2019-04-23T01:18:58.103Z,13.40
2019-04-23T01:21:22.380Z,13.40
2019-04-23T01:24:00.306Z,13.30
2019-04-23T01:26:50.314Z,13.20
2019-04-23T01:29:33.355Z,13.20
2019-04-23T01:31:55.115Z,13.30
2019-04-23T01:34:24.444Z,13.30
2019-04-23T01:37:01.159Z,13.40
2019-04-23T01:39:23.142Z,13.50
2019-04-23T01:42:07.105Z,13.40
2019-04-23T01:44:34.187Z,13.40
2019-04-23T01:46:56.215Z,13.30
2019-04-23T01:49:31.244Z,13.20
2019-04-23T01:54:28.850Z,13.10
2019-04-23T01:56:59.406Z,13.10
2019-04-23T01:59:26.240Z,13.00
2019-04-23T02:01:58.476Z,13.00
2019-04-23T02:04:28.430Z,12.90
2019-04-23T02:06:59.291Z,13.00
2019-04-23T02:09:37.280Z,12.90
2019-04-23T02:12:02.963Z,13.00
2019-04-23T02:14:34.594Z,13.10
2019-04-23T02:17:00.219Z,13.00
2019-04-23T02:19:40.112Z,13.10
2019-04-23T02:22:08.017Z,13.00
2019-04-23T02:24:41.307Z,12.90
2019-04-23T02:27:17.251Z,12.90
2019-04-23T02:29:54.105Z,12.80
2019-04-23T02:32:23.769Z,12.80
2019-04-23T02:34:52.404Z,12.80
2019-04-23T02:37:24.461Z,12.90
2019-04-23T02:40:09.066Z,12.80
2019-04-23T02:44:51.259Z,12.80
2019-04-23T02:47:31.924Z,12.70
2019-04-23T02:49:55.395Z,12.60
2019-04-23T02:54:51.018Z,12.40
2019-04-23T02:57:12.821Z,12.00
2019-04-23T03:00:07.945Z,11.80
2019-04-23T03:04:50.064Z,11.60
2019-04-23T03:07:30.668Z,11.70
2019-04-23T03:12:25.040Z,11.90
2019-04-23T03:15:11.009Z,12.00
2019-04-23T03:17:35.788Z,12.10
2019-04-23T03:20:21.492Z,12.10
2019-04-23T03:22:56.119Z,12.10
2019-04-23T03:25:38.158Z,12.10
2019-04-23T03:28:07.239Z,12.10
2019-04-23T03:32:31.139Z,12.20
2019-04-23T03:38:35.172Z,12.00
2019-04-23T03:40:46.487Z,12.10
2019-04-23T03:43:28.809Z,12.10
2019-04-23T03:46:04.344Z,12.10
2019-04-23T03:48:27.015Z,12.10
2019-04-23T03:53:24.388Z,12.10
2019-04-23T03:55:56.196Z,12.10
2019-04-23T04:03:42.240Z,12.10
2019-04-23T04:05:56.609Z,12.10
2019-04-23T04:11:11.303Z,12.20
2019-04-23T04:23:33.316Z,12.10
2019-04-23T04:26:00.872Z,12.10
2019-04-23T04:28:28.753Z,12.00
2019-04-23T04:33:36.505Z,12.00
2019-04-23T04:36:07.859Z,12.00
2019-04-23T04:43:31.613Z,12.00
2019-04-23T04:48:35.475Z,12.10
2019-04-23T04:56:07.628Z,12.00
2019-04-23T04:58:32.277Z,12.10
2019-04-23T05:03:28.479Z,12.20
2019-04-23T05:08:37.294Z,12.30
2019-04-23T05:11:21.624Z,12.30
2019-04-23T05:13:39.211Z,12.30
2019-04-23T05:15:58.091Z,12.30
2019-04-23T05:21:08.250Z,12.50
2019-04-23T05:23:54.347Z,12.50
2019-04-23T05:26:13.568Z,12.60
2019-04-23T05:28:51.652Z,12.60
2019-04-23T05:31:17.187Z,12.70
2019-04-23T05:33:41.521Z,12.80
2019-04-23T05:38:50.724Z,12.90
2019-04-23T05:41:16.983Z,12.90
2019-04-23T05:43:46.708Z,13.00
2019-04-23T05:46:25.060Z,13.10
2019-04-23T05:48:49.178Z,13.20
2019-04-23T05:53:45.082Z,13.30
2019-04-23T05:56:13.184Z,13.40
2019-04-23T05:58:43.701Z,13.40
2019-04-23T06:01:41.700Z,13.40
2019-04-23T06:03:56.750Z,13.40
2019-04-23T06:06:29.458Z,13.50
2019-04-23T06:11:28.487Z,13.50
2019-04-23T06:14:05.313Z,13.50
2019-04-23T06:16:33.009Z,13.40
2019-04-23T06:19:02.761Z,13.50
2019-04-23T06:21:33.993Z,13.60
2019-04-23T06:23:58.521Z,13.70
2019-04-23T06:28:59.482Z,13.90
2019-04-23T06:31:34.236Z,13.90
2019-04-23T06:34:02.714Z,13.90
2019-04-23T06:39:08.413Z,14.00
2019-04-23T06:41:31.234Z,14.00
2019-04-23T06:44:14.352Z,14.10
2019-04-23T06:46:46.050Z,14.10
2019-04-23T06:49:11.668Z,14.20
2019-04-23T06:51:46.582Z,14.20
2019-04-23T06:54:12.308Z,14.30
2019-04-23T06:59:12.398Z,14.30
2019-04-23T07:01:45.890Z,14.40
2019-04-23T07:04:15.065Z,14.30
2019-04-23T07:06:46.835Z,14.30
2019-04-23T07:14:02.438Z,14.40
2019-04-23T07:16:45.125Z,14.50
2019-04-23T07:19:16.560Z,14.50
2019-04-23T07:21:42.435Z,14.60
2019-04-23T07:24:15.128Z,14.70
2019-04-23T07:29:23.901Z,15.00
2019-04-23T07:31:52.186Z,15.10
2019-04-23T07:34:14.065Z,15.10
2019-04-23T07:39:23.322Z,15.40
2019-04-23T07:47:25.118Z,15.80
2019-04-23T07:49:56.550Z,15.90
2019-04-23T07:52:28.972Z,16.00
2019-04-23T07:54:52.589Z,16.10
2019-04-23T07:59:50.104Z,16.60
2019-04-23T08:02:24.101Z,16.80
2019-04-23T08:05:07.611Z,17.00
2019-04-23T08:07:19.946Z,17.10
2019-04-23T08:10:02.055Z,17.10
2019-04-23T08:14:53.461Z,17.00
2019-04-23T08:17:19.067Z,17.00
2019-04-23T08:19:56.425Z,17.10
2019-04-23T08:22:37.253Z,17.10
2019-04-23T08:27:22.391Z,17.30
2019-04-23T08:30:03.331Z,17.40
2019-04-23T08:32:23.590Z,17.60
2019-04-23T08:35:14.074Z,17.80
2019-04-23T08:37:49.702Z,17.90
2019-04-23T08:40:01.827Z,18.00
2019-04-23T08:50:43.065Z,18.60
2019-04-23T08:53:26.361Z,18.70
2019-04-23T08:55:44.195Z,18.80
2019-04-23T08:58:14.359Z,18.70
2019-04-23T09:01:00.629Z,18.80
2019-04-23T09:03:20.000Z,19.10
2019-04-23T09:08:32.812Z,19.50
2019-04-23T09:10:56.738Z,19.70
2019-04-23T09:15:49.766Z,20.10
2019-04-23T09:18:20.961Z,20.20
2019-04-23T09:20:49.672Z,20.40
2019-04-23T09:23:33.043Z,20.50
2019-04-23T09:25:54.109Z,20.60
2019-04-23T09:30:57.417Z,20.60
2019-04-23T09:33:31.229Z,20.60
2019-04-23T09:36:13.298Z,20.80
2019-04-23T09:38:53.657Z,20.90
2019-04-23T09:41:29.916Z,21.10
2019-04-23T09:44:14.876Z,21.40
2019-04-23T09:46:55.777Z,21.70
2019-04-23T09:51:51.320Z,22.00
2019-04-23T09:54:43.069Z,22.20
2019-04-23T09:56:52.075Z,22.50
2019-04-23T09:59:34.224Z,22.50
2019-04-23T10:01:44.943Z,22.70
2019-04-23T10:04:07.477Z,22.60
2019-04-23T10:06:32.108Z,22.30
2019-04-23T10:09:00.141Z,21.90
2019-04-23T10:11:28.399Z,21.80
2019-04-23T10:13:58.594Z,21.80
2019-04-23T10:16:30.347Z,22.00
2019-04-23T10:18:57.569Z,22.00
2019-04-23T10:21:26.304Z,21.90
2019-04-23T10:23:55.046Z,22.00
2019-04-23T10:26:24.033Z,21.80
2019-04-23T10:28:55.975Z,21.90
2019-04-23T10:31:25.131Z,22.10
2019-04-23T10:33:53.905Z,22.20
2019-04-23T10:36:25.846Z,22.10
2019-04-23T10:39:00.642Z,21.90
2019-04-23T10:41:24.248Z,21.70
2019-04-23T10:43:56.690Z,21.80
2019-04-23T10:47:06.717Z,22.20
2019-04-23T10:49:52.231Z,22.50
2019-04-23T10:52:16.872Z,22.70
2019-04-23T10:57:03.815Z,22.70
2019-04-23T10:59:40.442Z,22.80
2019-04-23T11:02:29.742Z,22.70
2019-04-23T11:07:27.187Z,22.90
2019-04-23T11:12:32.287Z,23.00
2019-04-23T11:14:58.249Z,22.90
2019-04-23T11:24:58.887Z,23.10
2019-04-23T11:27:32.933Z,23.20
2019-04-23T11:30:00.131Z,23.00
2019-04-23T11:37:36.324Z,23.10
2019-04-23T11:42:28.093Z,23.00
2019-04-23T11:44:56.670Z,23.10
2019-04-23T11:49:58.220Z,23.30
2019-04-23T12:05:41.390Z,23.90
2019-04-23T12:08:28.239Z,23.90
2019-04-23T12:11:00.271Z,23.90
2019-04-23T12:16:13.238Z,23.70
2019-04-23T12:18:28.674Z,23.90
2019-04-23T12:21:12.856Z,23.90
2019-04-23T12:23:50.508Z,23.70
2019-04-23T12:26:23.268Z,23.90
2019-04-23T12:28:44.148Z,24.00
2019-04-23T12:31:09.636Z,24.20
2019-04-23T12:33:44.047Z,24.10
2019-04-23T12:36:37.253Z,24.20
2019-04-23T12:39:04.353Z,24.30
2019-04-23T12:41:36.256Z,24.30
2019-04-23T12:44:03.493Z,24.10
2019-04-23T12:46:41.586Z,24.20
2019-04-23T12:49:10.683Z,24.20
2019-04-23T12:52:40.627Z,24.10
2019-04-23T12:54:06.963Z,24.40
2019-04-23T12:56:46.453Z,24.30
2019-04-23T12:58:56.758Z,24.20
2019-04-23T13:01:47.111Z,24.50
2019-04-23T13:04:01.376Z,24.70
2019-04-23T13:06:28.314Z,24.80
2019-04-23T13:09:18.865Z,24.90
2019-04-23T13:11:34.550Z,24.60
2019-04-23T13:14:08.569Z,24.50
2019-04-23T13:19:14.311Z,24.80
2019-04-23T13:24:26.017Z,24.90
2019-04-23T13:26:54.907Z,25.00
2019-04-23T13:29:37.936Z,24.80
2019-04-23T13:31:58.236Z,24.70
2019-04-23T13:34:38.051Z,24.70
2019-04-23T13:37:05.446Z,24.70
2019-04-23T13:39:38.892Z,24.70
2019-04-23T13:42:06.290Z,24.70
2019-04-23T13:44:35.447Z,24.70
2019-04-23T13:47:00.110Z,24.90
2019-04-23T13:49:37.754Z,24.80
2019-04-23T13:52:05.624Z,24.70
2019-04-23T13:54:59.931Z,24.80
2019-04-23T13:59:39.754Z,25.10
2019-04-23T14:02:09.077Z,25.20
2019-04-23T14:05:02.122Z,25.20
2019-04-23T14:07:32.591Z,25.40
2019-04-23T14:12:31.912Z,26.20
2019-04-23T14:15:04.900Z,26.70
2019-04-23T14:19:59.894Z,26.20
2019-04-23T14:27:44.556Z,25.70
2019-04-23T14:30:05.520Z,25.70
2019-04-23T14:32:29.401Z,25.80
2019-04-23T14:37:45.678Z,25.50
2019-04-23T14:40:22.224Z,25.50
2019-04-23T14:42:59.973Z,25.10
2019-04-23T14:47:59.064Z,24.80
2019-04-23T14:53:06.388Z,24.40
2019-04-23T14:58:10.554Z,24.30
2019-04-23T15:00:33.816Z,24.20
2019-04-23T15:05:36.057Z,24.10
2019-04-23T15:08:12.081Z,24.10
2019-04-23T15:13:10.842Z,24.10
2019-04-23T15:15:40.487Z,23.90
2019-04-23T15:18:21.289Z,23.80
2019-04-23T15:21:08.354Z,23.80
2019-04-23T15:23:53.266Z,23.90
2019-04-23T15:26:47.800Z,23.70
2019-04-23T15:28:08.973Z,23.70
2019-04-23T15:31:02.401Z,23.40
2019-04-23T15:33:34.289Z,23.20
2019-04-23T15:36:16.096Z,23.00
2019-04-23T15:38:43.597Z,23.00
2019-04-23T15:41:02.597Z,23.00
2019-04-23T15:43:30.787Z,23.00
2019-04-23T15:46:02.873Z,23.00
2019-04-23T15:48:33.623Z,23.10
2019-04-23T15:51:04.370Z,23.20
2019-04-23T15:53:24.571Z,23.20
2019-04-23T15:56:13.896Z,23.10
2019-04-23T16:03:19.748Z,23.30
2019-04-23T16:05:46.806Z,23.60
2019-04-23T16:08:51.402Z,23.60
2019-04-23T16:11:25.950Z,23.60
2019-04-23T16:14:08.243Z,23.60
2019-04-23T16:16:17.705Z,23.50
2019-04-23T16:19:09.583Z,23.40
2019-04-23T16:21:48.342Z,23.50
2019-04-23T16:24:13.514Z,23.60
2019-04-23T16:31:54.632Z,23.10
2019-04-23T16:34:19.183Z,22.90
2019-04-23T16:36:43.824Z,22.90
2019-04-23T16:44:20.275Z,23.30
2019-04-23T16:46:52.741Z,23.30
2019-04-23T16:49:17.886Z,23.30
2019-04-23T16:54:25.798Z,23.30
2019-04-23T16:59:32.835Z,23.30
2019-04-23T17:01:50.415Z,23.30
2019-04-23T17:06:54.768Z,23.20
2019-04-23T17:09:21.533Z,23.10
2019-04-23T17:11:59.119Z,22.90
2019-04-23T17:16:41.687Z,22.80
2019-04-23T17:19:26.233Z,22.60
2019-04-23T17:21:57.298Z,22.40
2019-04-23T17:26:54.333Z,22.30
2019-04-23T17:29:41.328Z,22.20
2019-04-23T17:31:44.831Z,22.20
2019-04-23T17:34:30.669Z,22.10
2019-04-23T17:37:05.309Z,22.00
2019-04-23T17:39:52.759Z,21.90
2019-04-23T17:42:19.622Z,21.70
2019-04-23T17:47:22.113Z,21.30
2019-04-23T17:49:59.057Z,21.30
2019-04-23T17:52:28.031Z,21.20
2019-04-23T17:54:54.852Z,21.10
2019-04-23T17:57:26.430Z,21.00
2019-04-23T18:00:09.957Z,20.80
2019-04-23T18:07:41.085Z,20.50
2019-04-23T18:10:12.789Z,20.40
2019-04-23T18:12:41.221Z,20.20
2019-04-23T18:15:02.597Z,20.00
2019-04-23T18:17:35.011Z,19.90
2019-04-23T18:20:16.673Z,19.70
2019-04-23T18:25:25.756Z,19.30
2019-04-23T18:30:32.080Z,19.00
2019-04-23T18:38:14.732Z,18.50
2019-04-23T18:40:58.200Z,18.30
2019-04-23T18:43:23.102Z,18.20
2019-04-23T18:45:53.848Z,18.10
2019-04-23T18:48:39.198Z,18.00
2019-04-23T18:51:00.287Z,17.90
2019-04-23T18:53:45.701Z,17.80
2019-04-23T18:56:06.880Z,17.80
2019-04-23T18:58:47.177Z,17.70
2019-04-23T19:01:05.597Z,17.60
2019-04-23T19:03:50.934Z,17.50
2019-04-23T19:14:25.678Z,17.10
2019-04-23T19:17:08.882Z,17.00
2019-04-23T19:22:14.404Z,17.00
2019-04-23T19:24:26.364Z,16.90
2019-04-23T19:29:36.998Z,16.70
2019-04-23T19:31:54.025Z,16.70
2019-04-23T19:44:31.366Z,16.10
2019-04-23T19:47:03.285Z,16.00
2019-04-23T19:54:34.368Z,15.60
2019-04-23T19:57:01.914Z,15.50
2019-04-23T19:59:39.552Z,15.40
2019-04-23T20:02:01.308Z,15.20
2019-04-23T20:04:39.406Z,15.00
2019-04-23T20:07:15.922Z,15.00
2019-04-23T20:12:00.987Z,14.80
2019-04-23T20:14:32.131Z,14.80
2019-04-23T20:19:40.690Z,14.80
2019-04-23T20:22:11.123Z,14.70
2019-04-23T20:24:37.249Z,14.60
2019-04-23T20:27:15.524Z,14.40
2019-04-23T20:29:50.836Z,14.30
2019-04-23T20:33:06.489Z,14.30
2019-04-23T20:37:12.603Z,14.50
2019-04-23T20:39:50.431Z,14.40
2019-04-23T20:44:53.534Z,14.20
2019-04-23T20:47:15.575Z,14.00
2019-04-23T20:52:08.841Z,13.90
2019-04-23T20:57:43.795Z,13.70
2019-04-23T21:10:51.009Z,13.40
2019-04-23T21:15:30.937Z,13.40
2019-04-23T21:17:58.062Z,13.40
2019-04-23T21:30:55.843Z,13.30
2019-04-23T21:33:11.597Z,13.20
2019-04-23T21:38:39.510Z,13.20
2019-04-23T21:41:08.692Z,13.10
2019-04-23T21:43:47.433Z,13.10
2019-04-23T21:48:53.082Z,12.90
2019-04-23T21:51:15.801Z,13.00
2019-04-23T21:53:42.762Z,12.80
2019-04-23T21:56:10.882Z,12.50
2019-04-23T21:58:49.573Z,12.70
2019-04-23T22:01:32.128Z,12.80
2019-04-23T22:04:08.595Z,12.80
2019-04-23T22:06:28.300Z,12.90
2019-04-23T22:09:00.875Z,12.90
2019-04-23T22:14:06.011Z,13.00
2019-04-23T22:16:36.971Z,13.00
2019-04-23T22:21:33.332Z,13.00
2019-04-23T22:29:17.699Z,13.00
2019-04-23T22:31:37.829Z,12.90
2019-04-23T22:36:42.855Z,12.70
2019-04-23T22:39:03.061Z,12.60
2019-04-23T22:46:48.396Z,12.10
2019-04-23T22:56:48.709Z,12.10
2019-04-23T23:01:59.185Z,12.20
2019-04-23T23:04:15.159Z,12.20
2019-04-23T23:11:49.790Z,12.20
2019-04-23T23:16:44.984Z,12.10
2019-04-23T23:19:22.212Z,12.10
2019-04-23T23:21:59.360Z,12.00
2019-04-23T23:24:15.413Z,12.00
2019-04-23T23:26:50.023Z,12.10
2019-04-23T23:29:16.050Z,12.20
2019-04-23T23:31:51.880Z,12.40
2019-04-23T23:34:15.488Z,12.40
2019-04-23T23:36:54.833Z,12.40
2019-04-23T23:39:22.795Z,12.40
2019-04-23T23:41:52.481Z,12.20
2019-04-23T23:46:56.291Z,11.90
2019-04-23T23:49:20.347Z,11.90
2019-04-23T23:51:49.340Z,11.70
2019-04-23T23:54:13.609Z,11.80
2019-04-23T23:57:00.778Z,11.70
